Greenway, Arkansas
Current Conditions -  °F | °C
As of 4:35 AM on Thursday 18 Dec 2014 (Local Time) from K4M9 Reporting Station
Haze Haze  
Wind Chill: 32°   Ceiling: 2900
Heat Index: 36°   Visibility: 5mi
Dew Point: 36°   Wind: 5mph
Humidity: 100%   Direction: 90°E
Pressure: 30.24"   Gusts: NA
Location:  36.34°N, 90.22°W
Report Text: K4M9 181035Z AUTO 09004KT 5SM BR OVC029 02/02 A3024 RMK AO2
Loading
Personal Weather Stations






























Interactive Weather Map New forecast layout! Learn more

10-Day Weather Forecast

Advertisements
Track Severe Weather on mobile